createdAt,value
2022-09-30T00:01:23.095Z,9.37
2022-09-30T00:03:50.192Z,8.80
2022-09-30T00:06:16.931Z,10.33
2022-09-30T00:08:43.671Z,9.93
2022-09-30T00:11:17.913Z,7.63
2022-09-30T00:13:46.878Z,7.90
2022-09-30T00:16:15.460Z,11.80
2022-09-30T00:18:43.492Z,7.17
2022-09-30T00:21:12.213Z,7.53
2022-09-30T00:23:39.889Z,8.93
2022-09-30T00:26:12.180Z,6.30
2022-09-30T00:28:40.626Z,10.40
2022-09-30T00:31:11.335Z,9.70
2022-09-30T00:33:38.210Z,11.63
2022-09-30T00:36:05.116Z,9.70
2022-09-30T00:38:32.455Z,14.83
2022-09-30T00:40:59.720Z,8.83
2022-09-30T00:43:43.310Z,8.30
2022-09-30T00:46:35.722Z,12.07
2022-09-30T00:49:13.253Z,10.13
2022-09-30T00:51:45.224Z,10.20
2022-09-30T00:54:17.964Z,11.07
2022-09-30T00:56:49.811Z,8.10
2022-09-30T00:59:20.543Z,8.27
2022-09-30T01:01:47.346Z,7.17
2022-09-30T01:04:20.849Z,12.03
2022-09-30T01:06:48.082Z,8.87
2022-09-30T01:09:15.251Z,9.60
2022-09-30T01:11:42.394Z,9.10
2022-09-30T01:14:17.479Z,12.33
2022-09-30T01:17:17.472Z,9.97
2022-09-30T01:20:25.322Z,8.90
2022-09-30T01:22:52.407Z,10.87
2022-09-30T01:25:30.786Z,9.23
2022-09-30T01:28:25.025Z,8.60
2022-09-30T01:31:16.705Z,11.03
2022-09-30T01:34:04.401Z,10.57
2022-09-30T01:36:52.153Z,8.30
2022-09-30T01:39:34.134Z,10.73
2022-09-30T01:42:08.946Z,7.90
2022-09-30T01:45:03.014Z,7.67
2022-09-30T01:47:36.427Z,8.53
2022-09-30T01:50:20.778Z,7.37
2022-09-30T01:52:51.036Z,7.10
2022-09-30T01:55:37.911Z,9.17
2022-09-30T01:58:11.656Z,10.93
2022-09-30T02:00:44.425Z,8.00
2022-09-30T02:03:27.680Z,9.87
2022-09-30T02:05:57.728Z,8.77
2022-09-30T02:08:58.906Z,9.57
2022-09-30T02:11:28.287Z,9.83
2022-09-30T02:13:58.396Z,8.33
2022-09-30T02:16:32.789Z,6.43
2022-09-30T02:19:31.695Z,10.17
2022-09-30T02:22:07.139Z,8.63
2022-09-30T02:24:38.703Z,8.50
2022-09-30T02:27:19.658Z,8.33
2022-09-30T02:29:51.331Z,7.47
2022-09-30T02:32:27.026Z,7.23
2022-09-30T02:35:02.514Z,7.80
2022-09-30T02:37:36.826Z,8.33
2022-09-30T02:40:15.813Z,11.37
2022-09-30T02:42:45.556Z,8.43
2022-09-30T02:45:16.494Z,8.77
2022-09-30T02:48:19.345Z,8.63
2022-09-30T02:50:54.252Z,8.13
2022-09-30T02:53:27.478Z,13.63
2022-09-30T02:55:54.561Z,10.37
2022-09-30T02:58:25.973Z,9.47
2022-09-30T03:00:54.497Z,11.43
2022-09-30T03:03:39.630Z,11.87
2022-09-30T03:06:07.327Z,11.27
2022-09-30T03:08:34.818Z,11.07
2022-09-30T03:11:01.926Z,9.80
2022-09-30T03:13:52.067Z,12.60
2022-09-30T03:16:36.881Z,8.70
2022-09-30T03:19:21.930Z,9.73
2022-09-30T03:22:27.412Z,11.50
2022-09-30T03:25:16.220Z,11.10
2022-09-30T03:27:55.039Z,13.67
2022-09-30T03:30:27.687Z,10.07
2022-09-30T03:33:04.054Z,10.80
2022-09-30T03:35:55.030Z,14.17
2022-09-30T03:38:44.558Z,11.40
2022-09-30T03:41:23.968Z,13.23
2022-09-30T03:44:07.319Z,11.37
2022-09-30T03:46:35.524Z,9.67
2022-09-30T03:49:06.441Z,14.20
2022-09-30T03:51:37.732Z,13.13
2022-09-30T03:54:12.314Z,15.90
2022-09-30T03:56:43.438Z,14.37
2022-09-30T03:59:22.849Z,11.80
2022-09-30T04:01:50.206Z,9.87
2022-09-30T04:04:16.980Z,9.90
2022-09-30T04:06:43.783Z,11.57
2022-09-30T04:09:10.887Z,14.33
2022-09-30T04:11:37.541Z,11.77
2022-09-30T04:14:05.815Z,14.63
2022-09-30T04:16:33.206Z,14.07
2022-09-30T04:19:00.370Z,10.53
2022-09-30T04:21:30.873Z,10.87
2022-09-30T04:23:57.573Z,11.07
2022-09-30T04:26:24.459Z,10.37
2022-09-30T04:28:52.511Z,11.33
2022-09-30T04:31:21.231Z,10.13
2022-09-30T04:33:48.095Z,10.30
2022-09-30T04:36:14.801Z,11.20
2022-09-30T04:38:41.885Z,11.73
2022-09-30T04:41:13.983Z,9.37
2022-09-30T04:43:45.036Z,14.63
2022-09-30T04:46:12.551Z,11.10
2022-09-30T04:48:39.487Z,10.13
2022-09-30T04:51:06.526Z,10.43
2022-09-30T04:53:34.321Z,12.23
2022-09-30T04:56:01.643Z,12.33
2022-09-30T04:58:32.234Z,11.37
2022-09-30T05:01:07.958Z,13.60
2022-09-30T05:03:35.609Z,11.43
2022-09-30T05:06:03.542Z,11.70
2022-09-30T05:08:30.263Z,12.13
2022-09-30T05:10:58.837Z,11.37
2022-09-30T05:13:29.922Z,10.80
2022-09-30T05:15:57.032Z,12.37
2022-09-30T05:18:26.382Z,11.00
2022-09-30T05:20:54.071Z,11.50
2022-09-30T05:23:21.092Z,10.77
2022-09-30T05:25:48.286Z,12.13
2022-09-30T05:28:15.095Z,11.27
2022-09-30T05:30:43.466Z,12.33
2022-09-30T05:33:11.243Z,10.40
2022-09-30T05:35:41.255Z,12.13
2022-09-30T05:38:09.157Z,14.10
2022-09-30T05:40:39.302Z,15.77
2022-09-30T05:43:06.977Z,10.17
2022-09-30T05:45:34.580Z,8.93
2022-09-30T05:48:02.025Z,10.60
2022-09-30T05:50:28.751Z,10.20
2022-09-30T05:52:55.384Z,9.73
2022-09-30T05:55:22.599Z,9.97
2022-09-30T05:57:50.962Z,14.47
2022-09-30T06:00:19.847Z,11.93
2022-09-30T06:02:47.050Z,12.63
2022-09-30T06:05:14.231Z,12.27
2022-09-30T06:07:41.303Z,11.60
2022-09-30T06:10:12.147Z,12.50
2022-09-30T06:12:39.709Z,12.10
2022-09-30T06:15:07.422Z,12.10
2022-09-30T06:17:34.742Z,13.83
2022-09-30T06:20:04.359Z,18.57
2022-09-30T06:22:34.316Z,12.47
2022-09-30T06:25:01.362Z,10.20
2022-09-30T06:27:28.256Z,11.27
2022-09-30T06:29:55.292Z,11.40
2022-09-30T06:32:22.325Z,11.43
2022-09-30T06:34:49.009Z,12.90
2022-09-30T06:37:16.032Z,10.37
2022-09-30T06:39:42.747Z,11.50
2022-09-30T06:42:10.039Z,11.63
2022-09-30T06:44:49.514Z,12.70
2022-09-30T06:47:25.152Z,13.13
2022-09-30T06:49:54.431Z,12.63
2022-09-30T06:52:22.160Z,11.33
2022-09-30T06:54:58.556Z,11.10
2022-09-30T06:57:27.662Z,15.30
2022-09-30T06:59:55.588Z,12.43
2022-09-30T07:02:22.685Z,11.77
2022-09-30T07:04:50.187Z,14.53
2022-09-30T07:07:16.850Z,10.30
2022-09-30T07:09:43.963Z,9.67
2022-09-30T07:12:10.679Z,12.63
2022-09-30T07:14:37.760Z,10.07
2022-09-30T07:17:06.251Z,11.67
2022-09-30T07:19:34.505Z,11.40
2022-09-30T07:22:22.245Z,16.00
2022-09-30T07:24:49.036Z,11.47
2022-09-30T07:27:15.893Z,13.90
2022-09-30T07:30:07.532Z,16.47
2022-09-30T07:32:30.869Z,13.20
2022-09-30T07:34:57.653Z,11.87
2022-09-30T07:37:25.451Z,10.17
2022-09-30T07:39:52.572Z,12.63
2022-09-30T07:42:22.816Z,8.10
2022-09-30T07:44:52.987Z,13.57
2022-09-30T07:47:20.470Z,8.67
2022-09-30T07:49:47.603Z,9.90
2022-09-30T07:52:14.912Z,11.23
2022-09-30T07:54:46.755Z,9.93
2022-09-30T07:57:16.591Z,13.63
2022-09-30T07:59:43.890Z,9.47
2022-09-30T08:02:18.830Z,9.97
2022-09-30T08:04:45.697Z,12.00
2022-09-30T08:07:14.030Z,9.47
2022-09-30T08:09:41.306Z,10.23
2022-09-30T08:12:08.759Z,10.03
2022-09-30T08:14:35.830Z,12.57
2022-09-30T08:17:02.627Z,9.97
2022-09-30T08:19:30.874Z,10.70
2022-09-30T08:21:58.225Z,14.40
2022-09-30T08:24:26.861Z,12.50
2022-09-30T08:26:54.496Z,14.93
2022-09-30T08:29:42.431Z,8.63
2022-09-30T08:32:08.153Z,8.23
2022-09-30T08:34:36.154Z,9.10
2022-09-30T08:37:08.674Z,8.80
2022-09-30T08:39:39.740Z,8.30
2022-09-30T08:42:41.294Z,9.20
2022-09-30T08:45:30.736Z,8.30
2022-09-30T08:48:06.551Z,7.00
2022-09-30T08:50:48.262Z,8.97
2022-09-30T08:53:26.723Z,8.47
2022-09-30T08:55:57.078Z,9.03
2022-09-30T08:58:24.115Z,9.63
2022-09-30T09:00:54.910Z,8.40
2022-09-30T09:03:26.239Z,8.20
2022-09-30T09:06:08.810Z,9.43
2022-09-30T09:09:03.249Z,9.57
2022-09-30T09:11:51.765Z,6.83
2022-09-30T09:14:44.531Z,6.77
2022-09-30T09:17:35.467Z,10.33
2022-09-30T09:20:23.321Z,9.37
2022-09-30T09:22:51.748Z,7.27
2022-09-30T09:25:21.831Z,6.83
2022-09-30T09:28:03.487Z,9.50
2022-09-30T09:30:36.462Z,8.77
2022-09-30T09:33:35.230Z,13.50
2022-09-30T09:36:20.100Z,8.80
2022-09-30T09:39:17.248Z,9.10
2022-09-30T09:42:31.036Z,10.40
2022-09-30T09:45:14.519Z,11.07
2022-09-30T09:47:45.600Z,8.40
2022-09-30T09:50:23.104Z,8.87
2022-09-30T09:53:34.308Z,8.10
2022-09-30T09:56:04.029Z,6.70
2022-09-30T09:58:33.097Z,9.07
2022-09-30T10:01:32.582Z,10.37
2022-09-30T10:04:18.913Z,7.43
2022-09-30T10:06:50.292Z,12.17
2022-09-30T10:09:25.593Z,8.13
2022-09-30T10:12:07.316Z,9.27
2022-09-30T10:14:34.355Z,8.90
2022-09-30T10:17:03.441Z,7.17
2022-09-30T10:19:33.390Z,8.67
2022-09-30T10:22:09.261Z,6.83
2022-09-30T10:24:38.139Z,7.87
2022-09-30T10:27:25.285Z,6.90
2022-09-30T10:29:52.386Z,11.57
2022-09-30T10:32:20.644Z,7.83
2022-09-30T10:34:56.394Z,8.33
2022-09-30T10:37:24.907Z,7.07
2022-09-30T10:40:06.638Z,6.30
2022-09-30T10:42:38.049Z,7.00
2022-09-30T10:45:06.208Z,5.90
2022-09-30T10:47:36.943Z,8.13
2022-09-30T10:50:12.201Z,7.90
2022-09-30T10:52:47.391Z,9.27
2022-09-30T10:55:19.906Z,8.13
2022-09-30T10:57:48.283Z,9.37
2022-09-30T11:00:19.604Z,9.80
2022-09-30T11:03:08.019Z,7.73
2022-09-30T11:05:40.010Z,8.80
2022-09-30T11:08:37.312Z,9.47
2022-09-30T11:11:15.651Z,6.70
2022-09-30T11:13:43.979Z,5.67
2022-09-30T11:16:35.137Z,6.37
2022-09-30T11:19:07.756Z,5.17
2022-09-30T11:21:39.772Z,5.60
2022-09-30T11:24:24.991Z,5.37
2022-09-30T11:27:10.139Z,7.90
2022-09-30T11:30:00.427Z,6.33
2022-09-30T11:32:29.867Z,6.00
2022-09-30T11:35:16.885Z,7.57
2022-09-30T11:38:02.585Z,8.97
2022-09-30T11:40:38.376Z,7.20
2022-09-30T11:43:35.239Z,5.93
2022-09-30T11:46:22.986Z,5.03
2022-09-30T11:49:04.930Z,4.80
2022-09-30T11:51:40.969Z,5.30
2022-09-30T11:54:25.763Z,4.93
2022-09-30T11:56:52.805Z,5.17
2022-09-30T11:59:52.671Z,5.53
2022-09-30T12:02:38.324Z,6.93
2022-09-30T12:05:14.127Z,6.73
2022-09-30T12:07:46.422Z,5.13
2022-09-30T12:10:43.284Z,6.70
2022-09-30T12:13:20.693Z,4.23
2022-09-30T12:15:49.620Z,7.07
2022-09-30T12:18:31.720Z,4.33
2022-09-30T12:21:10.398Z,6.57
2022-09-30T12:23:43.568Z,4.43
2022-09-30T12:26:12.088Z,3.33
2022-09-30T12:29:26.405Z,4.47
2022-09-30T12:32:11.613Z,3.20
2022-09-30T12:34:44.260Z,4.53
2022-09-30T12:37:32.568Z,8.93
2022-09-30T12:40:46.780Z,4.27
2022-09-30T12:43:38.649Z,3.70
2022-09-30T12:46:20.221Z,5.60
2022-09-30T12:48:53.462Z,5.80
2022-09-30T12:51:34.105Z,4.13
2022-09-30T12:54:18.146Z,4.17
2022-09-30T12:56:49.656Z,4.83
2022-09-30T12:59:19.957Z,2.50
2022-09-30T13:01:47.096Z,4.90
2022-09-30T13:04:30.615Z,6.37
2022-09-30T13:06:57.752Z,4.30
2022-09-30T13:09:55.289Z,3.43
2022-09-30T13:12:46.875Z,4.37
2022-09-30T13:15:39.973Z,2.70
2022-09-30T13:18:26.819Z,3.17
2022-09-30T13:20:56.614Z,2.73
2022-09-30T13:23:47.947Z,3.23
2022-09-30T13:26:27.457Z,2.67
2022-09-30T13:29:16.384Z,5.07
2022-09-30T13:31:46.016Z,3.50
2022-09-30T13:34:22.050Z,2.80
2022-09-30T13:36:51.520Z,4.73
2022-09-30T13:39:18.602Z,1.90
2022-09-30T13:42:10.427Z,3.50
2022-09-30T13:45:01.962Z,1.77
2022-09-30T13:47:50.615Z,3.07
2022-09-30T13:50:26.319Z,3.87
2022-09-30T13:53:01.009Z,2.30
2022-09-30T13:55:35.112Z,1.83
2022-09-30T13:58:20.148Z,2.50
2022-09-30T14:00:47.275Z,2.23
2022-09-30T14:03:24.130Z,2.40
2022-09-30T14:06:15.141Z,3.67
2022-09-30T14:09:10.819Z,16.20
2022-09-30T14:12:06.184Z,3.07
2022-09-30T14:14:39.098Z,2.43
2022-09-30T14:17:06.151Z,2.73
2022-09-30T14:19:44.498Z,2.03
2022-09-30T14:22:13.042Z,3.53
2022-09-30T14:24:40.606Z,2.43
2022-09-30T14:27:41.615Z,3.10
2022-09-30T14:30:17.527Z,2.17
2022-09-30T14:32:44.539Z,3.60
2022-09-30T14:35:19.126Z,3.60
2022-09-30T14:37:53.385Z,2.80
2022-09-30T14:40:25.975Z,1.90
2022-09-30T14:42:55.185Z,1.83
2022-09-30T14:45:28.733Z,3.77
2022-09-30T14:48:00.402Z,3.13
2022-09-30T14:50:33.633Z,2.03
2022-09-30T14:53:02.852Z,2.60
2022-09-30T14:55:30.441Z,3.50
2022-09-30T14:58:21.608Z,1.73
2022-09-30T15:00:58.028Z,2.43
2022-09-30T15:03:26.629Z,2.70
2022-09-30T15:05:53.648Z,3.97
2022-09-30T15:08:22.608Z,2.07
2022-09-30T15:10:54.549Z,4.10
2022-09-30T15:13:24.666Z,3.77
2022-09-30T15:15:51.620Z,2.63
2022-09-30T15:18:45.877Z,3.77
2022-09-30T15:21:15.440Z,2.37
2022-09-30T15:23:45.045Z,3.47
2022-09-30T15:26:13.276Z,3.57
2022-09-30T15:28:40.196Z,3.13
2022-09-30T15:31:15.683Z,2.73
2022-09-30T15:33:42.384Z,3.20
2022-09-30T15:36:17.038Z,7.77
2022-09-30T15:38:51.682Z,2.40
2022-09-30T15:41:18.830Z,7.97
2022-09-30T15:43:51.596Z,3.67
2022-09-30T15:46:18.465Z,2.90
2022-09-30T15:48:45.837Z,5.57
2022-09-30T15:51:40.090Z,5.23
2022-09-30T15:54:15.522Z,4.03
2022-09-30T15:56:43.477Z,2.63
2022-09-30T15:59:12.434Z,5.00
2022-09-30T16:01:49.246Z,3.63
2022-09-30T16:04:15.825Z,1.90
2022-09-30T16:07:09.536Z,3.33
2022-09-30T16:09:39.042Z,3.60
2022-09-30T16:12:11.800Z,2.10
2022-09-30T16:14:49.940Z,2.47
2022-09-30T16:17:29.950Z,3.13
2022-09-30T16:19:59.174Z,2.67
2022-09-30T16:22:41.211Z,2.73
2022-09-30T16:25:10.943Z,3.63
2022-09-30T16:27:38.849Z,2.53
2022-09-30T16:30:07.287Z,1.93
2022-09-30T16:32:40.580Z,3.43
2022-09-30T16:35:16.288Z,4.17
2022-09-30T16:37:44.142Z,3.73
2022-09-30T16:40:24.094Z,3.27
2022-09-30T16:42:53.264Z,2.47
2022-09-30T16:45:20.434Z,3.70
2022-09-30T16:47:47.225Z,3.37
2022-09-30T16:50:34.130Z,3.70
2022-09-30T16:53:00.756Z,5.00
2022-09-30T16:55:27.667Z,3.53
2022-09-30T16:57:59.588Z,2.20
2022-09-30T17:00:28.166Z,5.40
2022-09-30T17:02:55.415Z,4.33
2022-09-30T17:05:24.468Z,3.53
2022-09-30T17:07:56.704Z,4.47
2022-09-30T17:10:35.152Z,4.67
2022-09-30T17:13:03.401Z,5.47
2022-09-30T17:15:31.860Z,3.13
2022-09-30T17:17:59.590Z,4.63
2022-09-30T17:20:26.816Z,3.37
2022-09-30T17:22:53.906Z,3.70
2022-09-30T17:25:21.264Z,3.67
2022-09-30T17:27:49.922Z,3.47
2022-09-30T17:30:17.928Z,4.20
2022-09-30T17:32:45.478Z,3.93
2022-09-30T17:35:13.141Z,6.20
2022-09-30T17:37:42.535Z,4.87
2022-09-30T17:40:31.267Z,3.47
2022-09-30T17:43:07.429Z,3.47
2022-09-30T17:45:35.114Z,4.90
2022-09-30T17:48:02.319Z,4.30
2022-09-30T17:50:29.024Z,3.57
2022-09-30T17:52:56.312Z,6.40
2022-09-30T17:55:23.018Z,5.60
2022-09-30T17:57:50.046Z,4.10
2022-09-30T18:00:17.118Z,3.57
2022-09-30T18:02:44.710Z,3.97
2022-09-30T18:05:11.758Z,4.97
2022-09-30T18:07:38.929Z,7.37
2022-09-30T18:10:06.244Z,9.20
2022-09-30T18:12:34.307Z,6.40
2022-09-30T18:15:01.153Z,5.97
2022-09-30T18:17:28.203Z,5.57
2022-09-30T18:19:54.900Z,5.10
2022-09-30T18:22:21.964Z,3.43
2022-09-30T18:25:07.875Z,5.37
2022-09-30T18:27:34.525Z,4.50
2022-09-30T18:30:02.741Z,3.83
2022-09-30T18:32:29.746Z,4.53
2022-09-30T18:34:56.867Z,6.77
2022-09-30T18:37:24.654Z,4.60
2022-09-30T18:39:51.893Z,5.40
2022-09-30T18:42:20.149Z,3.50
2022-09-30T18:44:47.663Z,3.83
2022-09-30T18:47:17.028Z,3.73
2022-09-30T18:49:44.195Z,4.73
2022-09-30T18:52:11.277Z,4.20
2022-09-30T18:54:37.920Z,4.97
2022-09-30T18:57:05.090Z,3.77
2022-09-30T18:59:31.733Z,4.57
2022-09-30T19:02:00.295Z,4.63
2022-09-30T19:04:27.474Z,5.23
2022-09-30T19:06:54.883Z,4.60
2022-09-30T19:09:24.348Z,3.47
2022-09-30T19:11:51.465Z,4.43
2022-09-30T19:14:18.653Z,4.50
2022-09-30T19:16:45.952Z,3.13
2022-09-30T19:19:12.726Z,3.73
2022-09-30T19:21:40.393Z,2.70
2022-09-30T19:24:08.757Z,5.77
2022-09-30T19:26:37.709Z,3.77
2022-09-30T19:29:05.960Z,3.20
2022-09-30T19:31:34.667Z,4.73
2022-09-30T19:34:02.007Z,3.13
2022-09-30T19:36:31.384Z,4.50
2022-09-30T19:39:11.389Z,5.83
2022-09-30T19:41:39.216Z,3.77
2022-09-30T19:44:06.389Z,6.10
2022-09-30T19:46:33.542Z,6.33
2022-09-30T19:49:00.244Z,8.47
2022-09-30T19:51:29.177Z,5.17
2022-09-30T19:54:05.797Z,4.73
2022-09-30T19:56:33.755Z,8.93
2022-09-30T19:59:00.841Z,7.57
2022-09-30T20:01:28.626Z,4.73
2022-09-30T20:03:57.867Z,6.07
2022-09-30T20:06:24.870Z,6.97
2022-09-30T20:09:00.209Z,6.97
2022-09-30T20:11:29.921Z,6.43
2022-09-30T20:14:15.898Z,5.33
2022-09-30T20:16:43.794Z,3.60
2022-09-30T20:19:11.341Z,5.73
2022-09-30T20:21:38.685Z,4.03
2022-09-30T20:24:05.675Z,5.23
2022-09-30T20:26:34.213Z,4.53
2022-09-30T20:29:01.681Z,5.37
2022-09-30T20:31:29.224Z,3.50
2022-09-30T20:33:58.199Z,4.67
2022-09-30T20:36:26.627Z,3.63
2022-09-30T20:38:58.226Z,3.90
2022-09-30T20:41:34.656Z,4.77
2022-09-30T20:44:06.599Z,3.93
2022-09-30T20:46:34.273Z,4.33
2022-09-30T20:49:02.000Z,4.97
2022-09-30T20:51:30.605Z,4.27
2022-09-30T20:53:59.167Z,6.33
2022-09-30T20:56:28.522Z,7.93
2022-09-30T20:58:59.934Z,4.50
2022-09-30T21:01:27.930Z,2.90
2022-09-30T21:03:54.723Z,5.03
2022-09-30T21:06:25.783Z,3.77
2022-09-30T21:08:54.217Z,5.30
2022-09-30T21:11:23.315Z,3.97
2022-09-30T21:13:52.621Z,3.10
2022-09-30T21:16:21.946Z,4.20
2022-09-30T21:18:52.903Z,4.60
2022-09-30T21:21:21.382Z,2.87
2022-09-30T21:23:48.227Z,5.60
2022-09-30T21:26:17.184Z,4.37
2022-09-30T21:28:49.258Z,3.80
2022-09-30T21:31:16.179Z,5.67
2022-09-30T21:33:44.709Z,8.73
2022-09-30T21:36:11.957Z,4.20
2022-09-30T21:38:38.702Z,6.37
2022-09-30T21:41:06.770Z,8.17
2022-09-30T21:43:36.309Z,5.70
2022-09-30T21:46:08.909Z,4.10
2022-09-30T21:48:37.371Z,5.67
2022-09-30T21:51:05.772Z,4.30
2022-09-30T21:53:33.288Z,3.67
2022-09-30T21:56:01.884Z,5.73
2022-09-30T21:58:31.441Z,3.37
2022-09-30T22:01:06.968Z,4.63
2022-09-30T22:03:37.816Z,5.27
2022-09-30T22:06:07.941Z,4.23
2022-09-30T22:08:42.322Z,5.03
2022-09-30T22:11:17.642Z,5.80
2022-09-30T22:13:45.713Z,5.40
2022-09-30T22:16:15.359Z,3.97
2022-09-30T22:18:43.166Z,14.40
2022-09-30T22:21:12.445Z,41.23
2022-09-30T22:23:39.620Z,21.17
2022-09-30T22:26:09.208Z,13.03
2022-09-30T22:28:37.353Z,5.90
2022-09-30T22:31:31.913Z,4.17
2022-09-30T22:34:19.832Z,5.40
2022-09-30T22:37:05.706Z,4.87
2022-09-30T22:39:32.940Z,5.20
2022-09-30T22:41:59.862Z,4.10
2022-09-30T22:44:28.752Z,6.53
2022-09-30T22:46:57.583Z,5.43
2022-09-30T22:49:25.268Z,4.43
2022-09-30T22:51:53.596Z,3.50
2022-09-30T22:54:21.061Z,5.00
2022-09-30T22:56:50.382Z,5.30
2022-09-30T22:59:21.030Z,4.63
2022-09-30T23:01:49.190Z,5.50
2022-09-30T23:04:17.376Z,4.20
2022-09-30T23:06:50.146Z,4.60
2022-09-30T23:09:17.661Z,5.80
2022-09-30T23:11:46.025Z,3.97
2022-09-30T23:14:13.754Z,6.00
2022-09-30T23:16:40.718Z,6.23
2022-09-30T23:19:07.873Z,4.33
2022-09-30T23:21:34.934Z,3.47
2022-09-30T23:24:02.059Z,4.97
2022-09-30T23:26:29.917Z,9.03
2022-09-30T23:28:59.783Z,5.07
2022-09-30T23:31:27.068Z,4.47
2022-09-30T23:33:56.732Z,3.53
2022-09-30T23:36:29.331Z,5.20
2022-09-30T23:39:14.453Z,3.33
2022-09-30T23:41:43.526Z,4.50
2022-09-30T23:44:10.653Z,6.27
2022-09-30T23:46:37.307Z,4.90
2022-09-30T23:49:04.377Z,4.73
2022-09-30T23:51:33.476Z,5.80
2022-09-30T23:54:02.274Z,4.60
2022-09-30T23:56:29.403Z,4.60
2022-09-30T23:58:57.369Z,4.43
